Time;durP1;ratioP1;P1;durP2;ratioP2;P2;SDS_P1;SDS_P2;PMS_P1;PMS_P2;Temp;Humidity;BMP_temperature;BMP_pressure;BME280_temperature;BME280_humidity;BME280_pressure;Samples;Min_cycle;Max_cycle;Signal;HPM_P1;HPM_P2
2021/11/09 00:02:03;;;;;;;21.98;12.05;;;8.30;99.90;;;;;;5055840;28;20037;-58
2021/11/09 00:04:38;;;;;;;17.83;8.93;;;8.30;99.90;;;;;;5057432;28;20025;-60
2021/11/09 00:07:30;;;;;;;15.50;7.95;;;8.20;99.90;;;;;;5058357;28;20029;-59
2021/11/09 00:10:06;;;;;;;21.42;8.57;;;8.20;99.90;;;;;;5056752;28;20136;-59
2021/11/09 00:12:39;;;;;;;16.95;9.27;;;8.20;99.90;;;;;;5055847;28;20049;-58
2021/11/09 00:15:08;;;;;;;15.63;7.63;;;8.30;99.90;;;;;;5056754;28;20068;-61
2021/11/09 00:17:34;;;;;;;14.90;8.23;;;8.30;99.90;;;;;;5056541;28;20077;-60
2021/11/09 00:20:00;;;;;;;13.25;7.85;;;8.30;99.90;;;;;;5056145;28;20048;-57
2021/11/09 00:22:27;;;;;;;16.08;8.23;;;8.30;99.90;;;;;;5055320;28;20484;-59
2021/11/09 00:24:53;;;;;;;16.80;8.05;;;8.40;99.90;;;;;;5068857;28;20033;-60
2021/11/09 00:27:20;;;;;;;16.20;8.48;;;8.40;99.90;;;;;;5076245;28;20032;-59
2021/11/09 00:29:47;;;;;;;16.13;8.93;;;8.30;99.90;;;;;;5075290;28;20427;-60
2021/11/09 00:32:14;;;;;;;15.00;8.80;;;8.30;99.90;;;;;;5076260;28;20090;-58
2021/11/09 00:34:39;;;;;;;18.23;9.15;;;8.30;99.90;;;;;;5075999;28;20485;-59
2021/11/09 00:37:06;;;;;;;15.40;7.57;;;8.30;99.90;;;;;;5056718;28;20029;-59
2021/11/09 00:39:32;;;;;;;17.55;8.98;;;8.30;99.90;;;;;;5055263;28;20107;-59
2021/11/09 00:41:58;;;;;;;14.50;8.35;;;8.30;99.90;;;;;;5056918;28;20027;-61
2021/11/09 00:44:24;;;;;;;18.70;8.68;;;8.40;99.90;;;;;;5055320;28;20035;-59
2021/11/09 00:46:51;;;;;;;16.00;8.45;;;8.30;99.90;;;;;;5055914;28;20523;-60
2021/11/09 00:49:19;;;;;;;17.70;7.95;;;8.30;99.90;;;;;;5055647;28;20051;-60
2021/11/09 00:51:45;;;;;;;17.95;9.15;;;8.30;99.90;;;;;;5056057;28;20033;-59
2021/11/09 00:54:11;;;;;;;20.83;9.98;;;8.40;99.90;;;;;;5054996;28;20565;-61
2021/11/09 00:56:37;;;;;;;17.17;8.27;;;8.40;99.90;;;;;;5055053;28;20040;-60
2021/11/09 00:59:04;;;;;;;16.20;8.95;;;8.30;99.90;;;;;;5055709;28;20037;-59
2021/11/09 01:01:30;;;;;;;18.13;9.20;;;8.30;99.90;;;;;;5055290;28;20033;-58
2021/11/09 01:03:56;;;;;;;17.00;8.75;;;8.30;99.90;;;;;;5055399;28;20079;-60
2021/11/09 01:06:22;;;;;;;17.17;8.82;;;8.30;99.90;;;;;;5054612;28;20041;-59
2021/11/09 01:08:48;;;;;;;17.35;8.40;;;8.40;99.90;;;;;;5055418;28;20044;-59
2021/11/09 01:11:14;;;;;;;19.83;9.70;;;8.30;99.90;;;;;;5055330;28;20029;-60
2021/11/09 01:13:39;;;;;;;16.40;8.77;;;8.30;99.90;;;;;;5055363;28;20057;-60
2021/11/09 01:16:05;;;;;;;15.57;8.23;;;8.40;99.90;;;;;;5053862;28;20124;-58
2021/11/09 01:18:38;;;;;;;19.95;9.32;;;8.40;99.90;;;;;;5055924;28;20132;-58
2021/11/09 01:21:04;;;;;;;21.35;9.15;;;8.40;99.90;;;;;;5054811;28;20033;-59
2021/11/09 01:23:31;;;;;;;17.83;9.25;;;8.40;99.90;;;;;;5048916;28;20531;-59
2021/11/09 01:25:57;;;;;;;16.88;8.60;;;8.40;99.90;;;;;;5039900;28;20107;-59
2021/11/09 01:28:23;;;;;;;19.05;9.63;;;8.40;99.90;;;;;;5055948;28;20020;-60
2021/11/09 01:30:49;;;;;;;15.70;8.65;;;8.40;99.90;;;;;;5046001;28;20078;-59
2021/11/09 01:33:15;;;;;;;14.00;8.68;;;8.30;99.90;;;;;;5035624;28;20029;-60
2021/11/09 01:35:42;;;;;;;17.55;9.90;;;8.30;99.90;;;;;;5044421;28;20163;-59
2021/11/09 01:38:09;;;;;;;16.75;9.00;;;8.30;99.90;;;;;;5054997;28;20028;-55
2021/11/09 01:40:35;;;;;;;20.88;8.80;;;8.30;99.90;;;;;;5035455;28;20060;-58
2021/11/09 01:43:02;;;;;;;15.30;8.30;;;8.40;99.90;;;;;;5034886;28;20124;-59
2021/11/09 01:45:29;;;;;;;19.83;9.35;;;8.40;99.90;;;;;;5055684;28;20021;-59
2021/11/09 01:47:54;;;;;;;13.85;8.75;;;8.40;99.90;;;;;;5053730;28;20037;-58
2021/11/09 01:50:26;;;;;;;19.23;9.77;;;8.40;99.90;;;;;;5054857;28;20564;-58
2021/11/09 01:52:52;;;;;;;18.23;8.85;;;8.40;99.90;;;;;;5055445;28;20025;-59
2021/11/09 01:55:21;;;;;;;21.60;8.77;;;8.40;99.90;;;;;;5055372;28;20025;-58
2021/11/09 01:57:47;;;;;;;21.42;9.02;;;8.40;99.90;;;;;;5035149;28;20029;-60
2021/11/09 02:00:18;;;;;;;18.15;8.88;;;8.40;99.90;;;;;;5034208;28;20033;-59
2021/11/09 02:02:45;;;;;;;18.92;8.98;;;8.40;99.90;;;;;;5034249;28;20040;-59
2021/11/09 02:05:12;;;;;;;16.60;8.50;;;8.60;99.90;;;;;;5034614;28;20556;-58
2021/11/09 02:07:54;;;;;;;18.52;10.23;;;8.60;99.90;;;;;;5034083;28;20045;-60
2021/11/09 02:10:23;;;;;;;16.58;9.77;;;8.50;99.90;;;;;;5034578;28;20080;-58
2021/11/09 02:12:49;;;;;;;23.85;9.35;;;8.50;99.90;;;;;;5041139;28;20041;-57
2021/11/09 02:15:15;;;;;;;20.85;9.73;;;8.50;99.90;;;;;;5052460;28;20056;-60
2021/11/09 02:17:43;;;;;;;19.73;8.82;;;8.60;99.90;;;;;;5052245;28;20045;-60
2021/11/09 02:20:12;;;;;;;19.67;9.32;;;8.50;99.90;;;;;;5052824;28;20037;-60
2021/11/09 02:22:38;;;;;;;16.15;9.45;;;8.50;99.90;;;;;;5063850;28;20215;-57
2021/11/09 02:25:07;;;;;;;17.40;9.43;;;8.50;99.90;;;;;;5073198;28;20025;-58
2021/11/09 02:27:34;;;;;;;17.70;9.93;;;8.60;99.90;;;;;;5072408;28;20444;-59
2021/11/09 02:29:59;;;;;;;20.30;9.57;;;8.60;99.90;;;;;;5074035;28;20035;-59
2021/11/09 02:32:26;;;;;;;15.93;8.48;;;8.60;99.90;;;;;;5074460;28;20111;-56
2021/11/09 02:34:51;;;;;;;24.38;9.77;;;8.60;99.90;;;;;;5074870;28;20082;-59
2021/11/09 02:37:17;;;;;;;20.48;10.27;;;8.60;99.90;;;;;;5074460;28;20040;-58
2021/11/09 02:39:44;;;;;;;20.63;9.63;;;8.60;99.90;;;;;;5075168;28;20029;-59
2021/11/09 02:42:13;;;;;;;17.90;9.30;;;8.60;99.90;;;;;;5074737;28;20395;-60
2021/11/09 02:44:53;;;;;;;19.48;8.63;;;8.60;99.90;;;;;;5073626;28;20024;-60
2021/11/09 02:47:21;;;;;;;18.48;8.93;;;8.70;99.90;;;;;;5073483;28;20063;-60
2021/11/09 02:50:01;;;;;;;18.58;10.07;;;8.80;99.90;;;;;;5072835;28;20021;-61
2021/11/09 02:52:29;;;;;;;18.05;9.40;;;8.70;99.90;;;;;;5072510;28;20047;-60
2021/11/09 02:55:05;;;;;;;18.80;9.80;;;8.70;99.90;;;;;;5074013;28;20032;-59
2021/11/09 02:57:43;;;;;;;16.40;8.82;;;8.70;99.90;;;;;;5073275;28;20040;-58
2021/11/09 03:02:52;;;;;;;19.77;9.25;;;8.70;99.90;;;;;;5072491;28;20032;-58
2021/11/09 03:07:56;;;;;;;20.50;9.73;;;8.70;99.90;;;;;;5072642;28;20028;-59
2021/11/09 03:10:30;;;;;;;20.98;10.63;;;8.70;99.90;;;;;;5073311;28;20115;-60
2021/11/09 03:12:56;;;;;;;;;;;8.70;99.90;;;;;;5073571;28;20036;-60
2021/11/09 03:15:30;;;;;;;19.33;9.07;;;8.60;99.90;;;;;;5073802;28;19915;-60
2021/11/09 03:18:00;;;;;;;22.40;9.63;;;8.60;99.90;;;;;;5072815;28;20032;-61
2021/11/09 03:39:58;;;;;;;22.75;9.82;;;8.60;99.90;;;;;;5072533;28;20067;-60
2021/11/09 03:45:24;;;;;;;;;;;8.70;99.90;;;;;;5073357;28;20032;-59
2021/11/09 03:47:53;;;;;;;22.13;10.35;;;8.70;99.90;;;;;;5072541;28;19917;-59
2021/11/09 03:50:21;;;;;;;17.40;9.65;;;8.80;99.90;;;;;;5070930;28;20033;-60
2021/11/09 03:52:57;;;;;;;20.83;9.93;;;8.60;99.90;;;;;;5070244;28;20079;-61
2021/11/09 03:55:41;;;;;;;20.88;10.13;;;8.60;99.90;;;;;;5072320;28;20123;-61
2021/11/09 03:58:21;;;;;;;18.77;9.77;;;8.60;99.90;;;;;;5072208;28;20120;-61
2021/11/09 04:01:01;;;;;;;21.35;10.30;;;8.70;99.90;;;;;;5072764;28;20483;-62
2021/11/09 04:06:20;;;;;;;20.17;9.50;;;8.70;99.90;;;;;;5073426;28;20098;-60
2021/11/09 04:11:32;;;;;;;15.43;9.02;;;8.60;99.90;;;;;;5072064;28;20435;-59
2021/11/09 04:14:28;;;;;;;19.05;10.90;;;8.60;99.90;;;;;;5072204;28;20056;-59
2021/11/09 04:19:43;;;;;;;19.05;10.27;;;8.50;99.90;;;;;;5071976;28;20127;-60
2021/11/09 04:27:34;;;;;;;20.58;10.48;;;8.40;99.90;;;;;;5072149;28;20032;-58
2021/11/09 04:30:30;;;;;;;22.27;10.90;;;8.40;99.90;;;;;;5071922;28;20063;-61
2021/11/09 04:49:38;;;;;;;22.70;10.60;;;8.60;99.90;;;;;;5076270;28;20033;-60
2021/11/09 05:08:27;;;;;;;29.95;11.52;;;8.50;99.90;;;;;;5035162;28;20174;-60
2021/11/09 05:10:56;;;;;;;21.33;11.50;;;8.50;99.90;;;;;;5034330;28;20030;-58
2021/11/09 05:13:22;;;;;;;15.82;10.70;;;8.40;99.90;;;;;;5034631;28;20113;-58
2021/11/09 05:15:49;;;;;;;18.52;11.40;;;8.50;99.90;;;;;;5040976;28;20039;-61
2021/11/09 05:18:14;;;;;;;18.88;11.25;;;8.40;99.90;;;;;;5055865;28;20037;-60
2021/11/09 05:20:40;;;;;;;17.80;10.90;;;8.40;99.90;;;;;;5055369;28;20055;-59
2021/11/09 05:23:06;;;;;;;24.17;12.93;;;8.40;99.90;;;;;;5063186;28;20071;-60
2021/11/09 05:25:32;;;;;;;26.00;12.02;;;8.50;99.90;;;;;;5055341;28;20051;-61
2021/11/09 05:27:57;;;;;;;23.58;11.38;;;8.50;99.90;;;;;;5055689;28;20476;-61
2021/11/09 05:30:23;;;;;;;25.05;11.80;;;8.40;99.90;;;;;;5052956;28;20021;-60
2021/11/09 05:32:52;;;;;;;16.77;10.57;;;8.40;99.90;;;;;;5054144;28;20032;-61
2021/11/09 05:35:17;;;;;;;23.52;12.48;;;8.40;99.90;;;;;;5052871;28;20033;-62
2021/11/09 05:37:46;;;;;;;18.08;11.07;;;8.30;99.90;;;;;;5054695;28;20507;-60
2021/11/09 05:40:12;;;;;;;22.05;11.38;;;8.40;99.90;;;;;;5054783;28;20044;-65
2021/11/09 05:42:38;;;;;;;25.88;12.70;;;8.40;99.90;;;;;;5050436;28;20066;-62
2021/11/09 05:45:05;;;;;;;20.48;12.98;;;8.40;99.90;;;;;;5053711;28;20517;-64
2021/11/09 05:47:30;;;;;;;26.13;11.32;;;8.40;99.90;;;;;;5055291;28;20111;-61
2021/11/09 05:49:57;;;;;;;19.85;11.77;;;8.50;99.90;;;;;;5053734;28;20036;-63
2021/11/09 05:52:23;;;;;;;23.55;11.98;;;8.50;99.90;;;;;;5053606;28;20500;-60
2021/11/09 05:54:48;;;;;;;25.92;12.32;;;8.50;99.90;;;;;;5054740;28;20037;-61
2021/11/09 05:57:14;;;;;;;22.27;11.73;;;8.40;99.90;;;;;;5054500;28;20485;-63
2021/11/09 05:59:40;;;;;;;24.30;13.32;;;8.40;99.90;;;;;;5054110;28;20044;-61
2021/11/09 06:02:06;;;;;;;22.77;12.30;;;8.40;99.90;;;;;;5053188;28;20059;-63
2021/11/09 06:04:32;;;;;;;27.02;11.65;;;8.40;99.90;;;;;;5054171;28;20025;-62
2021/11/09 06:06:58;;;;;;;24.95;12.30;;;8.40;99.90;;;;;;5053827;28;20102;-62
2021/11/09 06:09:23;;;;;;;23.08;11.57;;;8.30;99.90;;;;;;5051919;28;20512;-60
2021/11/09 06:11:49;;;;;;;22.85;12.10;;;8.30;99.90;;;;;;5054247;28;20037;-63
2021/11/09 06:14:15;;;;;;;26.20;13.02;;;8.30;99.90;;;;;;5052693;28;20052;-61
2021/11/09 06:16:40;;;;;;;21.90;11.02;;;8.40;99.90;;;;;;5053899;28;20080;-60
2021/11/09 06:19:06;;;;;;;19.35;11.35;;;8.40;99.90;;;;;;5052404;28;20033;-60
2021/11/09 06:21:32;;;;;;;22.27;11.52;;;8.40;99.90;;;;;;5056481;28;20032;-59
2021/11/09 06:23:58;;;;;;;23.83;13.10;;;8.40;99.90;;;;;;5073767;28;20043;-62
2021/11/09 06:26:26;;;;;;;21.58;12.90;;;8.50;99.90;;;;;;5072224;28;20476;-60
2021/11/09 06:28:56;;;;;;;25.38;13.88;;;8.50;99.90;;;;;;5073374;28;20020;-60
2021/11/09 06:31:22;;;;;;;27.20;11.85;;;8.50;99.90;;;;;;5073634;28;20031;-61
2021/11/09 06:33:48;;;;;;;21.58;12.75;;;8.60;99.90;;;;;;5075064;28;20492;-60
2021/11/09 06:36:13;;;;;;;27.60;12.25;;;8.60;99.90;;;;;;5073120;28;20041;-60
2021/11/09 06:38:39;;;;;;;24.60;12.85;;;8.60;99.90;;;;;;5074299;28;20433;-60
2021/11/09 06:41:05;;;;;;;24.85;13.23;;;8.60;99.90;;;;;;5073536;28;20033;-61
2021/11/09 06:43:31;;;;;;;34.28;16.13;;;8.70;99.90;;;;;;5050932;28;20025;-64
2021/11/09 06:45:58;;;;;;;24.80;14.95;;;8.60;99.90;;;;;;5033977;28;20037;-62
2021/11/09 06:48:26;;;;;;;22.05;12.57;;;8.70;99.90;;;;;;5032980;28;20569;-61
2021/11/09 06:50:52;;;;;;;25.00;12.63;;;8.70;99.90;;;;;;5031731;28;20119;-63
2021/11/09 06:53:18;;;;;;;24.67;12.57;;;8.70;99.90;;;;;;5033691;28;20503;-61
2021/11/09 06:55:45;;;;;;;22.88;13.38;;;8.70;99.90;;;;;;5032203;28;20035;-61
2021/11/09 06:58:10;;;;;;;37.75;17.02;;;8.70;99.90;;;;;;5034705;28;20061;-62
2021/11/09 07:00:36;;;;;;;28.42;16.92;;;8.70;99.90;;;;;;5033423;28;20052;-62
2021/11/09 07:03:03;;;;;;;22.52;14.13;;;8.70;99.90;;;;;;5033714;28;20397;-61
2021/11/09 07:05:29;;;;;;;25.00;13.70;;;8.70;99.90;;;;;;5033126;28;20041;-62
2021/11/09 07:07:54;;;;;;;26.90;13.55;;;8.70;99.90;;;;;;5032940;28;20029;-60
2021/11/09 07:10:20;;;;;;;28.58;12.75;;;8.80;99.90;;;;;;5033405;28;20045;-60
2021/11/09 07:12:47;;;;;;;27.13;13.88;;;8.80;99.90;;;;;;5033825;28;20030;-62
2021/11/09 07:15:14;;;;;;;24.77;13.35;;;8.80;99.90;;;;;;5032579;28;20512;-62
2021/11/09 07:17:40;;;;;;;24.15;13.52;;;8.90;99.90;;;;;;5033018;28;20040;-61
2021/11/09 07:20:11;;;;;;;37.45;22.33;;;8.90;99.90;;;;;;5032446;28;20041;-60
2021/11/09 07:22:37;;;;;;;37.60;24.08;;;9.00;99.90;;;;;;5059291;28;20089;-62
2021/11/09 07:25:03;;;;;;;28.83;13.73;;;9.10;99.90;;;;;;5073081;28;20052;-61
2021/11/09 07:27:29;;;;;;;26.75;14.50;;;9.10;99.90;;;;;;5071618;28;20024;-61
2021/11/09 07:29:55;;;;;;;24.70;13.55;;;9.10;99.90;;;;;;5070892;28;20021;-61
2021/11/09 07:32:21;;;;;;;32.85;14.10;;;9.10;99.90;;;;;;5072549;28;20037;-62
2021/11/09 07:34:47;;;;;;;54.72;32.65;;;9.20;99.90;;;;;;5072359;28;20474;-62
2021/11/09 07:37:13;;;;;;;37.88;21.98;;;9.30;99.90;;;;;;5072744;28;20029;-63
2021/11/09 07:39:39;;;;;;;29.55;18.42;;;9.40;99.90;;;;;;5072365;28;20443;-62
2021/11/09 07:42:07;;;;;;;29.27;15.63;;;9.50;99.90;;;;;;5072461;28;20465;-62
2021/11/09 07:44:32;;;;;;;29.17;14.55;;;9.60;99.90;;;;;;5073004;28;20052;-61
2021/11/09 07:46:58;;;;;;;23.88;13.90;;;9.60;99.90;;;;;;5073045;28;20036;-60
2021/11/09 07:49:24;;;;;;;27.92;13.52;;;9.70;99.90;;;;;;5073527;28;20545;-60
2021/11/09 07:51:50;;;;;;;27.70;13.20;;;9.60;99.90;;;;;;5073274;28;20044;-63
2021/11/09 07:54:22;;;;;;;29.88;12.75;;;9.70;99.90;;;;;;5072358;28;20127;-61
2021/11/09 07:56:49;;;;;;;21.92;13.52;;;9.60;99.90;;;;;;5071873;28;20036;-61
2021/11/09 07:59:29;;;;;;;24.88;14.65;;;9.60;99.90;;;;;;5072832;28;20032;-60
2021/11/09 08:02:04;;;;;;;24.00;13.57;;;9.60;99.90;;;;;;5073297;28;20033;-60
2021/11/09 08:07:02;;;;;;;25.67;14.07;;;9.60;99.90;;;;;;5074702;28;20127;-61
2021/11/09 08:09:28;;;;;;;25.17;14.02;;;9.60;99.90;;;;;;5077220;28;20028;-61
2021/11/09 08:11:56;;;;;;;31.00;16.38;;;9.60;99.90;;;;;;5075718;28;20036;-61
2021/11/09 08:14:22;;;;;;;30.00;18.27;;;9.50;99.90;;;;;;5076536;28;20032;-61
2021/11/09 08:16:48;;;;;;;26.40;15.43;;;9.50;99.90;;;;;;5076720;28;20040;-63
2021/11/09 08:19:16;;;;;;;25.15;13.15;;;9.50;99.90;;;;;;5076758;28;20055;-61
2021/11/09 08:21:42;;;;;;;24.92;13.02;;;9.50;99.90;;;;;;5049522;28;20032;-61
2021/11/09 08:24:09;;;;;;;23.05;14.63;;;9.50;99.90;;;;;;5037421;28;20025;-62
2021/11/09 08:26:36;;;;;;;20.20;13.05;;;9.40;99.90;;;;;;5036208;28;20043;-62
2021/11/09 08:29:05;;;;;;;27.38;12.35;;;9.30;99.90;;;;;;5036948;28;20025;-60
2021/11/09 08:31:33;;;;;;;26.98;12.68;;;9.30;99.90;;;;;;5035399;28;20030;-60
2021/11/09 08:34:01;;;;;;;22.90;12.45;;;9.30;99.90;;;;;;5036546;28;20436;-62
2021/11/09 08:36:30;;;;;;;26.00;12.30;;;9.30;99.90;;;;;;5035943;28;20117;-62
2021/11/09 08:39:01;;;;;;;29.35;13.15;;;9.30;99.90;;;;;;5036843;28;20030;-62
2021/11/09 08:41:31;;;;;;;19.77;12.00;;;9.30;99.90;;;;;;5035799;28;20044;-61
2021/11/09 08:44:05;;;;;;;24.30;12.93;;;9.40;99.90;;;;;;5035313;28;20113;-62
2021/11/09 08:46:35;;;;;;;21.42;13.38;;;9.40;99.90;;;;;;5035512;28;20619;-60
2021/11/09 08:49:03;;;;;;;30.92;14.13;;;9.30;99.90;;;;;;5035353;28;20168;-59
2021/11/09 08:51:29;;;;;;;24.38;14.18;;;9.30;99.90;;;;;;5035382;28;20030;-61
2021/11/09 08:53:59;;;;;;;24.85;12.15;;;9.40;99.90;;;;;;5036317;28;20087;-61
2021/11/09 08:56:47;;;;;;;26.08;14.20;;;9.40;99.90;;;;;;5044132;28;20032;-63
2021/11/09 09:04:42;;;;;;;23.60;11.73;;;9.70;99.90;;;;;;5054820;28;19909;-61
2021/11/09 09:07:08;;;;;;;26.23;12.82;;;9.70;99.90;;;;;;5055178;28;20040;-60
2021/11/09 09:09:34;;;;;;;24.20;12.88;;;9.80;99.90;;;;;;5054867;28;20163;-62
2021/11/09 09:12:00;;;;;;;20.55;12.65;;;9.80;99.90;;;;;;5055819;28;20041;-61
2021/11/09 09:14:26;;;;;;;23.33;15.10;;;10.00;99.90;;;;;;5055908;28;20112;-61
2021/11/09 09:16:54;;;;;;;26.38;13.02;;;10.10;99.90;;;;;;5054933;28;20539;-61
2021/11/09 09:19:26;;;;;;;27.63;12.45;;;10.10;99.90;;;;;;5053710;28;20033;-61
2021/11/09 09:22:09;;;;;;;25.40;12.32;;;10.10;99.90;;;;;;5060918;28;20040;-63
2021/11/09 09:30:03;;;;;;;22.85;12.32;;;10.50;99.90;;;;;;5054458;28;20381;-62
2021/11/09 09:33:01;;;;;;;22.75;13.23;;;10.60;99.90;;;;;;5055031;28;20069;-62
2021/11/09 09:55:01;;;;;;;25.33;13.57;;;11.10;99.90;;;;;;5054306;28;20323;-62
2021/11/09 09:57:28;;;;;;;22.00;12.30;;;10.90;99.90;;;;;;5054592;28;20055;-61
2021/11/09 09:59:56;;;;;;;23.33;13.32;;;10.80;99.90;;;;;;5053080;28;20439;-60
2021/11/09 10:02:29;;;;;;;25.38;12.80;;;10.70;99.90;;;;;;5054047;28;20428;-61
2021/11/09 10:05:08;;;;;;;18.92;11.80;;;10.70;99.90;;;;;;5054403;28;20558;-62
2021/11/09 10:07:39;;;;;;;22.75;12.35;;;10.80;99.90;;;;;;5054053;28;20086;-60
2021/11/09 10:10:10;;;;;;;20.77;12.18;;;10.70;99.90;;;;;;5053702;28;20123;-62
2021/11/09 10:12:41;;;;;;;22.30;12.63;;;10.80;99.90;;;;;;5054736;28;20113;-63
2021/11/09 10:15:10;;;;;;;23.70;13.00;;;10.90;99.90;;;;;;5054519;28;20036;-61
2021/11/09 10:17:40;;;;;;;24.05;12.70;;;10.70;99.90;;;;;;5054588;28;20047;-56
2021/11/09 10:20:15;;;;;;;24.58;12.73;;;10.70;99.90;;;;;;5055220;28;20036;-56
2021/11/09 10:22:43;;;;;;;18.67;12.15;;;10.70;99.90;;;;;;5055969;28;20090;-57
2021/11/09 10:25:14;;;;;;;21.85;11.88;;;10.80;99.90;;;;;;5052593;28;20199;-57
2021/11/09 10:27:43;;;;;;;21.45;12.27;;;10.90;99.90;;;;;;5053761;28;20040;-55
2021/11/09 10:30:16;;;;;;;23.15;11.70;;;11.00;99.90;;;;;;5053122;28;20143;-57
2021/11/09 10:32:42;;;;;;;22.38;11.52;;;11.10;99.90;;;;;;5053440;28;20083;-60
2021/11/09 10:35:10;;;;;;;24.83;11.38;;;11.20;99.90;;;;;;5054351;28;20045;-59
2021/11/09 10:37:39;;;;;;;25.27;12.65;;;11.30;99.90;;;;;;5054280;28;20053;-56
2021/11/09 10:40:13;;;;;;;24.13;11.98;;;11.40;99.90;;;;;;5054462;28;20041;-54
2021/11/09 10:42:40;;;;;;;20.40;10.80;;;11.40;99.90;;;;;;5054708;28;20083;-56
2021/11/09 10:45:12;;;;;;;24.77;12.20;;;11.50;99.70;;;;;;5054099;28;20112;-55
2021/11/09 10:47:44;;;;;;;22.88;10.88;;;11.10;99.90;;;;;;5052927;28;20074;-55
2021/11/09 10:50:43;;;;;;;18.27;10.32;;;11.00;99.90;;;;;;5053105;28;20029;-55
2021/11/09 10:53:30;;;;;;;16.58;10.65;;;11.20;99.90;;;;;;5028491;28;20442;-56
2021/11/09 10:58:55;;;;;;;21.13;10.20;;;11.50;99.70;;;;;;5054044;28;20064;-58
2021/11/09 11:04:09;;;;;;;20.60;9.68;;;11.60;99.30;;;;;;5053283;28;20029;-55
2021/11/09 11:06:36;;;;;;;18.05;9.82;;;11.80;98.90;;;;;;5051555;28;20033;-57
2021/11/09 11:09:11;;;;;;;17.95;9.07;;;11.80;98.70;;;;;;5051735;28;20025;-59
2021/11/09 11:11:44;;;;;;;14.63;9.30;;;11.90;98.70;;;;;;5052850;28;20058;-60
2021/11/09 11:14:11;;;;;;;22.00;8.82;;;11.90;98.40;;;;;;5051598;28;20059;-55
2021/11/09 11:16:42;;;;;;;16.95;9.75;;;11.80;98.00;;;;;;5052854;28;20033;-62
2021/11/09 11:19:10;;;;;;;13.65;9.23;;;12.00;98.00;;;;;;5052118;28;20036;-56
2021/11/09 11:21:36;;;;;;;15.80;8.43;;;11.80;98.00;;;;;;5058602;28;20091;-55
2021/11/09 11:24:03;;;;;;;16.75;8.48;;;11.60;98.10;;;;;;5051074;28;20500;-59
2021/11/09 11:26:30;;;;;;;19.10;8.55;;;11.70;97.80;;;;;;5051614;28;20108;-55
2021/11/09 11:28:57;;;;;;;22.50;9.73;;;11.60;98.30;;;;;;5067919;28;20036;-56
2021/11/09 11:31:26;;;;;;;16.15;7.50;;;11.70;98.20;;;;;;5052361;28;20025;-55
2021/11/09 11:33:52;;;;;;;14.35;7.75;;;11.80;97.80;;;;;;5051235;28;20037;-61
2021/11/09 11:36:18;;;;;;;13.55;7.55;;;11.60;98.00;;;;;;5051891;28;20499;-59
2021/11/09 11:38:46;;;;;;;14.30;8.10;;;11.70;97.70;;;;;;5052626;28;20035;-55
2021/11/09 11:41:12;;;;;;;12.75;7.15;;;11.80;97.40;;;;;;5054533;28;20078;-54
2021/11/09 11:43:47;;;;;;;12.43;6.18;;;11.70;97.40;;;;;;5056505;28;20473;-57
2021/11/09 11:46:34;;;;;;;17.33;7.60;;;11.60;97.00;;;;;;5057483;28;20040;-57
2021/11/09 11:49:19;;;;;;;15.88;6.85;;;11.60;97.20;;;;;;5052345;28;20116;-54
2021/11/09 11:51:44;;;;;;;12.40;6.03;;;11.70;97.20;;;;;;5056811;28;20022;-60
2021/11/09 11:54:11;;;;;;;12.43;6.20;;;11.80;96.50;;;;;;5056384;28;20025;-57
2021/11/09 11:56:41;;;;;;;11.27;6.35;;;11.80;97.00;;;;;;5056526;28;20078;-55
2021/11/09 11:59:12;;;;;;;10.98;6.22;;;11.80;96.30;;;;;;5056472;28;20103;-57
2021/11/09 12:01:43;;;;;;;15.68;7.30;;;12.00;96.50;;;;;;5055287;28;20028;-56
2021/11/09 12:04:10;;;;;;;13.15;6.93;;;12.00;96.40;;;;;;5049433;28;20124;-59
2021/11/09 12:06:50;;;;;;;11.48;6.90;;;11.80;96.60;;;;;;5056750;28;20035;-55
2021/11/09 12:09:32;;;;;;;12.80;6.20;;;11.90;96.70;;;;;;5056157;28;20025;-56
2021/11/09 12:11:58;;;;;;;14.63;7.32;;;12.00;96.90;;;;;;5056131;28;20041;-57
2021/11/09 12:14:25;;;;;;;17.08;7.53;;;12.00;97.10;;;;;;5056505;28;20041;-56
2021/11/09 12:16:58;;;;;;;15.73;7.38;;;12.10;97.10;;;;;;5056225;28;20041;-60
2021/11/09 12:19:37;;;;;;;18.48;9.65;;;12.20;96.80;;;;;;5056803;28;20095;-57
2021/11/09 12:22:17;;;;;;;20.13;8.82;;;12.20;96.90;;;;;;5061589;28;20029;-53
2021/11/09 12:24:47;;;;;;;16.52;7.65;;;12.10;97.00;;;;;;5055556;28;20021;-59
2021/11/09 12:27:13;;;;;;;15.02;7.25;;;12.20;96.90;;;;;;5056435;28;20495;-58
2021/11/09 12:29:42;;;;;;;14.20;8.57;;;12.30;96.60;;;;;;5056364;28;20514;-58
2021/11/09 12:32:38;;;;;;;19.17;8.68;;;12.20;96.90;;;;;;5071752;28;20039;-59
2021/11/09 12:35:11;;;;;;;28.63;8.52;;;12.20;96.90;;;;;;5051436;28;20079;-59
2021/11/09 12:38:03;;;;;;;21.85;7.65;;;12.30;96.60;;;;;;5054707;28;20033;-53
2021/11/09 12:40:45;;;;;;;21.25;9.25;;;12.40;96.00;;;;;;5055365;28;20175;-55
2021/11/09 12:43:32;;;;;;;18.30;7.50;;;12.60;95.70;;;;;;5055844;28;20029;-56
2021/11/09 12:46:13;;;;;;;15.75;8.05;;;12.40;95.50;;;;;;5055905;28;20532;-56
2021/11/09 12:48:55;;;;;;;32.78;14.95;;;12.30;95.70;;;;;;5054375;28;20044;-53
2021/11/09 12:51:23;;;;;;;19.20;11.25;;;12.30;95.80;;;;;;5053790;28;20025;-56
2021/11/09 12:53:51;;;;;;;14.35;10.07;;;12.50;95.80;;;;;;5054676;28;20028;-56
2021/11/09 12:57:00;;;;;;;29.70;11.68;;;12.70;95.50;;;;;;5038096;28;20393;-58
2021/11/09 12:59:35;;;;;;;26.67;10.57;;;13.00;95.20;;;;;;5033260;28;20075;-59
2021/11/09 13:05:49;;;;;;;20.83;10.88;;;13.40;94.20;;;;;;5055144;28;20024;-57
2021/11/09 13:07:48;;;;;;;18.45;11.25;;;13.50;94.00;;;;;;5049811;28;20061;-57
2021/11/09 13:10:24;;;;;;;15.40;10.13;;;13.60;94.10;;;;;;5054222;28;20056;-57
2021/11/09 13:12:53;;;;;;;18.13;9.68;;;13.60;94.10;;;;;;5055018;28;20115;-59
2021/11/09 13:15:22;;;;;;;26.15;11.10;;;13.70;94.10;;;;;;5055174;28;20040;-56
2021/11/09 13:18:04;;;;;;;20.13;11.05;;;13.80;94.00;;;;;;5054916;28;20045;-59
2021/11/09 13:20:37;;;;;;;28.02;16.15;;;13.70;94.10;;;;;;5059662;28;20098;-57
2021/11/09 13:23:13;;;;;;;28.52;15.63;;;13.40;94.30;;;;;;5034166;28;20038;-59
2021/11/09 13:25:41;;;;;;;27.00;14.50;;;13.30;94.70;;;;;;5035220;28;20026;-57
2021/11/09 13:28:15;;;;;;;30.25;13.82;;;13.10;94.80;;;;;;5035535;28;20477;-60
2021/11/09 13:30:43;;;;;;;22.95;13.50;;;13.00;95.10;;;;;;5034485;28;20033;-59
2021/11/09 13:33:09;;;;;;;44.05;16.27;;;12.90;95.20;;;;;;5034268;28;20041;-60
2021/11/09 13:35:40;;;;;;;24.08;14.65;;;12.80;95.40;;;;;;5034901;28;20175;-55
2021/11/09 13:38:09;;;;;;;17.80;12.63;;;13.00;95.50;;;;;;5035500;28;20030;-55
2021/11/09 13:40:42;;;;;;;32.22;14.27;;;13.30;95.20;;;;;;5035154;28;20036;-59
2021/11/09 13:43:10;;;;;;;24.55;13.02;;;13.50;94.90;;;;;;5034603;28;20648;-58
2021/11/09 13:45:38;;;;;;;21.52;13.85;;;13.50;94.70;;;;;;5033628;28;20347;-59
2021/11/09 13:48:16;;;;;;;20.73;12.85;;;13.40;94.80;;;;;;5035381;28;20109;-58
2021/11/09 13:50:43;;;;;;;23.10;12.18;;;13.40;94.90;;;;;;5034785;28;20057;-56
2021/11/09 13:53:09;;;;;;;22.10;11.63;;;13.60;94.90;;;;;;5034626;28;20455;-58
2021/11/09 13:55:38;;;;;;;20.50;11.52;;;13.80;94.50;;;;;;5034959;28;20117;-58
2021/11/09 13:58:05;;;;;;;21.60;11.50;;;13.90;94.30;;;;;;5034146;28;20124;-56
2021/11/09 14:00:40;;;;;;;17.70;9.70;;;14.00;94.30;;;;;;5034562;28;20033;-57
2021/11/09 14:12:30;;;;;;;26.30;9.68;;;15.40;92.10;;;;;;5035487;28;20034;-56
2021/11/09 14:14:49;;;;;;;24.67;9.40;;;16.00;91.50;;;;;;5029213;28;20729;-58
2021/11/09 14:17:15;;;;;;;17.23;7.93;;;16.90;90.10;;;;;;5034407;28;20068;-55
2021/11/09 14:19:41;;;;;;;13.77;7.65;;;17.60;87.40;;;;;;5017179;28;20041;-59
2021/11/09 14:22:18;;;;;;;13.25;6.97;;;18.30;84.30;;;;;;5060106;28;20044;-57
2021/11/09 14:25:06;;;;;;;12.85;8.45;;;18.80;82.10;;;;;;5054906;28;20040;-58
2021/11/09 14:27:38;;;;;;;11.63;7.68;;;18.90;79.90;;;;;;5054571;28;20028;-56
2021/11/09 14:30:07;;;;;;;13.48;6.97;;;18.50;79.70;;;;;;5054059;28;20036;-57
2021/11/09 14:32:35;;;;;;;19.80;7.75;;;17.80;80.40;;;;;;5053880;28;20377;-55
2021/11/09 14:35:09;;;;;;;19.45;7.55;;;17.00;82.10;;;;;;5054012;28;20107;-56
2021/11/09 14:37:45;;;;;;;12.23;8.02;;;16.20;84.80;;;;;;5068951;28;20033;-60
2021/11/09 14:40:13;;;;;;;13.43;7.43;;;15.50;86.90;;;;;;5053788;28;20055;-53
2021/11/09 14:48:15;;;;;;;56.53;10.45;;;14.10;91.10;;;;;;5054641;28;20025;-59
2021/11/09 14:51:14;;;;;;;20.25;8.55;;;13.80;91.80;;;;;;5053087;28;20029;-58
2021/11/09 14:53:41;;;;;;;9.98;6.55;;;13.50;92.20;;;;;;5053246;28;20524;-57
2021/11/09 14:56:14;;;;;;;15.63;8.00;;;13.20;92.80;;;;;;5053112;28;20033;-58
2021/11/09 14:58:48;;;;;;;13.23;7.07;;;13.00;93.10;;;;;;5068627;28;20032;-56
2021/11/09 15:01:42;;;;;;;12.27;6.20;;;12.90;93.50;;;;;;5054233;28;20590;-55
2021/11/09 15:04:15;;;;;;;12.65;6.43;;;12.80;93.50;;;;;;5054393;28;20045;-54